Manzanita, California
Current Conditions -  °F | °C
As of 11:53 PM on Wednesday 17 Dec 2014 (Local Time) from KOVE Reporting Station
Light Rain Light Rain  
Wind Chill: 50°   Ceiling: 3400
Heat Index: 50°   Visibility: 8mi
Dew Point: 47°   Wind: 6mph
Humidity: 89%   Direction: 90°E
Pressure: 30.13"   Gusts: NA
Location:  39.3475°N, 121.759°W
Report Text: KOVE 180753Z AUTO 09005KT 8SM -RA SCT016 BKN034 OVC045 10/08 A3013 RMK AO2 SLP205 P0001 T01000083 401220100
Loading
Personal Weather Stations






























Interactive Weather Map New forecast layout! Learn more

10-Day Weather Forecast

Advertisements
Track Severe Weather on mobile